sensor_id;sensor_type;location;lat;lon;timestamp;P1;durP1;ratioP1;P2;durP2;ratioP2
46633;SDS011;32362;49.986;8.026;2023-12-20T00:23:26;8.43;;;5.15;;
46633;SDS011;32362;49.986;8.026;2023-12-20T00:50:07;4.07;;;2.80;;
46633;SDS011;32362;49.986;8.026;2023-12-20T01:16:49;9.90;;;4.40;;
46633;SDS011;32362;49.986;8.026;2023-12-20T01:43:29;7.07;;;3.77;;
46633;SDS011;32362;49.986;8.026;2023-12-20T02:10:10;5.65;;;3.25;;
46633;SDS011;32362;49.986;8.026;2023-12-20T02:36:51;6.55;;;3.40;;
46633;SDS011;32362;49.986;8.026;2023-12-20T03:03:32;3.03;;;1.75;;
46633;SDS011;32362;49.986;8.026;2023-12-20T03:30:13;3.95;;;2.58;;
46633;SDS011;32362;49.986;8.026;2023-12-20T03:56:54;3.88;;;1.92;;
46633;SDS011;32362;49.986;8.026;2023-12-20T04:23:34;2.67;;;1.80;;
46633;SDS011;32362;49.986;8.026;2023-12-20T04:50:15;19.85;;;3.17;;
46633;SDS011;32362;49.986;8.026;2023-12-20T05:16:56;6.22;;;2.33;;
46633;SDS011;32362;49.986;8.026;2023-12-20T05:43:37;5.97;;;2.15;;
46633;SDS011;32362;49.986;8.026;2023-12-20T06:10:18;3.95;;;2.00;;
46633;SDS011;32362;49.986;8.026;2023-12-20T06:36:58;2.58;;;1.63;;
46633;SDS011;32362;49.986;8.026;2023-12-20T07:03:39;4.03;;;1.50;;
46633;SDS011;32362;49.986;8.026;2023-12-20T07:30:22;8.60;;;1.75;;
46633;SDS011;32362;49.986;8.026;2023-12-20T07:57:03;6.88;;;1.52;;
46633;SDS011;32362;49.986;8.026;2023-12-20T08:23:44;8.38;;;1.75;;
46633;SDS011;32362;49.986;8.026;2023-12-20T08:50:25;6.47;;;1.83;;
46633;SDS011;32362;49.986;8.026;2023-12-20T09:17:06;6.70;;;2.03;;
46633;SDS011;32362;49.986;8.026;2023-12-20T09:43:48;6.68;;;1.80;;
46633;SDS011;32362;49.986;8.026;2023-12-20T10:10:32;9.18;;;1.77;;
46633;SDS011;32362;49.986;8.026;2023-12-20T10:37:13;7.00;;;1.77;;
46633;SDS011;32362;49.986;8.026;2023-12-20T11:03:53;3.30;;;1.30;;
46633;SDS011;32362;49.986;8.026;2023-12-20T11:30:47;3.25;;;0.90;;
46633;SDS011;32362;49.986;8.026;2023-12-20T11:57:35;9.48;;;1.90;;
46633;SDS011;32362;49.986;8.026;2023-12-20T12:24:19;5.43;;;1.45;;
46633;SDS011;32362;49.986;8.026;2023-12-20T12:51:03;10.95;;;1.60;;
46633;SDS011;32362;49.986;8.026;2023-12-20T13:17:44;3.78;;;1.17;;
46633;SDS011;32362;49.986;8.026;2023-12-20T13:44:26;2.65;;;0.80;;
46633;SDS011;32362;49.986;8.026;2023-12-20T14:11:07;2.80;;;0.98;;
46633;SDS011;32362;49.986;8.026;2023-12-20T14:37:48;2.72;;;0.82;;
46633;SDS011;32362;49.986;8.026;2023-12-20T15:04:30;4.10;;;0.77;;
46633;SDS011;32362;49.986;8.026;2023-12-20T15:31:11;3.03;;;0.85;;
46633;SDS011;32362;49.986;8.026;2023-12-20T15:57:52;7.97;;;1.80;;
46633;SDS011;32362;49.986;8.026;2023-12-20T16:24:33;4.17;;;1.43;;
46633;SDS011;32362;49.986;8.026;2023-12-20T16:51:15;6.68;;;1.75;;
46633;SDS011;32362;49.986;8.026;2023-12-20T17:17:56;5.90;;;1.90;;
46633;SDS011;32362;49.986;8.026;2023-12-20T17:44:36;3.57;;;1.20;;
46633;SDS011;32362;49.986;8.026;2023-12-20T18:11:17;4.93;;;1.50;;
46633;SDS011;32362;49.986;8.026;2023-12-20T18:37:57;4.63;;;1.90;;
46633;SDS011;32362;49.986;8.026;2023-12-20T19:04:38;4.47;;;1.77;;
46633;SDS011;32362;49.986;8.026;2023-12-20T19:31:20;8.23;;;2.35;;
46633;SDS011;32362;49.986;8.026;2023-12-20T19:58:01;3.47;;;2.05;;
46633;SDS011;32362;49.986;8.026;2023-12-20T20:24:41;5.80;;;2.80;;
46633;SDS011;32362;49.986;8.026;2023-12-20T20:51:23;7.55;;;2.40;;
46633;SDS011;32362;49.986;8.026;2023-12-20T21:18:03;6.03;;;2.38;;
46633;SDS011;32362;49.986;8.026;2023-12-20T21:44:45;2.50;;;1.60;;
46633;SDS011;32362;49.986;8.026;2023-12-20T22:11:25;4.25;;;1.80;;
46633;SDS011;32362;49.986;8.026;2023-12-20T22:38:06;3.35;;;1.50;;
46633;SDS011;32362;49.986;8.026;2023-12-20T23:04:47;1.77;;;0.80;;
46633;SDS011;32362;49.986;8.026;2023-12-20T23:31:28;1.67;;;0.97;;
46633;SDS011;32362;49.986;8.026;2023-12-20T23:58:09;1.70;;;1.03;;
